Time;durP1;ratioP1;P1;durP2;ratioP2;P2;SDS_P1;SDS_P2;PMS_P1;PMS_P2;Temp;Humidity;BMP_temperature;BMP_pressure;BME280_temperature;BME280_humidity;BME280_pressure;Samples;Min_cycle;Max_cycle;Signal;HPM_P1;HPM_P2
2024/04/12 00:02:14;;;;;;;;;;;;;;;8.30;100.00;97200.53;10956845;26;3166;-70
2024/04/12 00:07:18;;;;;;;;;;;;;;;8.23;100.00;97202.47;10951935;26;2932;-67
2024/04/12 00:12:25;;;;;;;;;;;;;;;8.10;100.00;97206.94;10959151;26;3244;-68
2024/04/12 00:17:33;;;;;;;;;;;;;;;7.98;100.00;97214.06;10975322;26;2947;-67
2024/04/12 00:22:38;;;;;;;;;;;;;;;7.94;100.00;97212.84;10950236;26;2963;-67
2024/04/12 00:27:43;;;;;;;;;;;;;;;7.86;100.00;97215.84;10946692;26;3293;-68
2024/04/12 00:32:56;;;;;;;;;;;;;;;7.85;100.00;97225.72;10944946;26;3016;-69
2024/04/12 00:38:03;;;;;;;;;;;;;;;7.79;100.00;97231.13;10959510;26;3118;-70
2024/04/12 00:43:11;;;;;;;;;;;;;;;7.76;100.00;97236.91;10954499;26;3111;-67
2024/04/12 00:48:15;;;;;;;;;;;;;;;7.76;100.00;97236.91;10947883;26;3160;-68
2024/04/12 00:53:22;;;;;;;;;;;;;;;7.61;100.00;97239.13;10944639;26;3114;-68
2024/04/12 00:58:27;;;;;;;;;;;;;;;7.44;100.00;97238.84;10947163;26;3135;-68
2024/04/12 01:03:31;;;;;;;;;;;;;;;7.38;100.00;97232.53;10950151;26;3051;-71
2024/04/12 01:08:37;;;;;;;;;;;;;;;7.35;100.00;97224.09;10959014;26;3648;-67
2024/04/12 01:13:42;;;;;;;;;;;;;;;7.37;100.00;97216.66;10955064;26;3158;-67
2024/04/12 01:18:46;;;;;;;;;;;;;;;7.27;100.00;97211.81;10968853;26;3237;-68
2024/04/12 01:23:53;;;;;;;;;;;;;;;7.29;100.00;97215.91;10948460;26;2877;-70
2024/04/12 01:28:58;;;;;;;;;;;;;;;7.34;100.00;97204.56;10945210;26;3118;-68
2024/04/12 01:34:04;;;;;;;;;;;;;;;7.36;100.00;97209.69;10951717;26;3177;-67
2024/04/12 01:39:11;;;;;;;;;;;;;;;7.35;100.00;97198.16;10958702;26;3149;-72
2024/04/12 01:44:24;;;;;;;;;;;;;;;7.34;100.00;97196.53;10937920;26;3229;-69
2024/04/12 01:49:30;;;;;;;;;;;;;;;7.36;100.00;97196.31;10958366;26;2991;-67
2024/04/12 01:54:34;;;;;;;;;;;;;;;7.32;100.00;97182.56;10954371;26;3615;-68
2024/04/12 01:59:42;;;;;;;;;;;;;;;7.30;100.00;97182.75;10948169;26;3191;-69
2024/04/12 02:04:51;;;;;;;;;;;;;;;7.28;100.00;97192.88;10952004;26;3224;-73
2024/04/12 02:09:58;;;;;;;;;;;;;;;7.28;100.00;97192.88;10926432;26;2984;-70
2024/04/12 02:15:16;;;;;;;;;;;;;;;7.26;100.00;97194.13;10948436;26;3139;-68
2024/04/12 02:20:21;;;;;;;;;;;;;;;7.25;100.00;97192.47;10949983;26;3067;-68
2024/04/12 02:25:27;;;;;;;;;;;;;;;7.26;100.00;97199.50;10951738;26;3119;-68
2024/04/12 02:30:32;;;;;;;;;;;;;;;7.24;100.00;97198.88;10955140;26;3078;-68
2024/04/12 02:35:41;;;;;;;;;;;;;;;7.21;100.00;97204.66;10953634;26;3126;-69
2024/04/12 02:40:45;;;;;;;;;;;;;;;7.13;100.00;97205.75;10955282;26;3376;-68
2024/04/12 02:45:50;;;;;;;;;;;;;;;7.09;100.00;97207.22;10951914;26;2979;-69
2024/04/12 02:50:55;;;;;;;;;;;;;;;7.00;100.00;97212.00;10956541;26;3221;-67
2024/04/12 02:56:00;;;;;;;;;;;;;;;7.00;100.00;97209.34;10955767;26;3251;-67
2024/04/12 03:01:05;;;;;;;;;;;;;;;6.95;100.00;97203.81;10949145;26;3224;-68
2024/04/12 03:06:10;;;;;;;;;;;;;;;6.86;100.00;97201.59;10952871;26;3138;-67
2024/04/12 03:11:21;;;;;;;;;;;;;;;6.80;100.00;97210.47;10954568;26;3316;-69
2024/04/12 03:16:28;;;;;;;;;;;;;;;6.78;100.00;97210.69;10953355;26;3138;-68
2024/04/12 03:21:32;;;;;;;;;;;;;;;6.71;100.00;97210.72;10951153;26;2971;-69
2024/04/12 03:26:37;;;;;;;;;;;;;;;6.64;100.00;97206.44;10935809;26;3678;-68
2024/04/12 03:31:41;;;;;;;;;;;;;;;6.67;100.00;97209.50;10939984;26;2521;-68
2024/04/12 03:37:16;;;;;;;;;;;;;;;6.66;100.00;97210.53;10956971;26;3040;-67
2024/04/12 03:42:20;;;;;;;;;;;;;;;6.65;100.00;97213.44;10948676;26;3070;-68
2024/04/12 03:47:25;;;;;;;;;;;;;;;6.62;100.00;97220.03;10950155;26;3256;-67
2024/04/12 03:52:30;;;;;;;;;;;;;;;6.59;100.00;97217.78;10954020;26;3157;-68
2024/04/12 03:57:38;;;;;;;;;;;;;;;6.60;100.00;97215.91;10952774;26;2952;-68
2024/04/12 04:02:48;;;;;;;;;;;;;;;6.57;100.00;97221.69;10949545;26;3123;-68
2024/04/12 04:07:54;;;;;;;;;;;;;;;6.49;100.00;97220.09;10947231;26;3645;-68
2024/04/12 04:13:03;;;;;;;;;;;;;;;6.47;100.00;97222.13;10953069;26;3119;-68
2024/04/12 04:18:10;;;;;;;;;;;;;;;6.45;100.00;97225.03;10946528;26;2963;-68
2024/04/12 04:23:17;;;;;;;;;;;;;;;6.45;100.00;97225.03;10956057;26;3044;-67
2024/04/12 04:28:30;;;;;;;;;;;;;;;6.46;100.00;97224.00;10958428;26;3177;-69
2024/04/12 04:33:38;;;;;;;;;;;;;;;6.45;100.00;97219.69;10954488;26;3289;-68
2024/04/12 04:38:43;;;;;;;;;;;;;;;6.45;100.00;97218.88;10955411;26;3177;-69
2024/04/12 04:43:47;;;;;;;;;;;;;;;6.47;100.00;97222.97;10949516;26;3252;-69
2024/04/12 04:48:52;;;;;;;;;;;;;;;6.57;100.00;97227.03;10955751;26;2925;-68
2024/04/12 04:53:59;;;;;;;;;;;;;;;6.66;100.00;97231.09;10957079;26;3188;-69
2024/04/12 04:59:06;;;;;;;;;;;;;;;6.87;100.00;97235.31;10954192;26;3010;-68
2024/04/12 05:04:15;;;;;;;;;;;;;;;7.09;100.00;97235.81;10950935;26;3219;-68
2024/04/12 05:09:21;;;;;;;;;;;;;;;7.29;100.00;97233.81;10951524;26;3166;-67
2024/04/12 05:19:47;;;;;;;;;;;;;;;7.97;100.00;97239.22;10951260;26;3101;-68
2024/04/12 05:24:52;;;;;;;;;;;;;;;8.44;100.00;97241.41;10942294;26;3142;-68
2024/04/12 05:29:56;;;;;;;;;;;;;;;8.65;100.00;97235.56;10925252;26;3250;-68
2024/04/12 05:35:06;;;;;;;;;;;;;;;9.23;100.00;97229.66;10962830;26;3004;-67
2024/04/12 05:40:12;;;;;;;;;;;;;;;9.70;100.00;97222.50;10960254;26;2974;-69
2024/04/12 05:45:19;;;;;;;;;;;;;;;10.38;100.00;97221.09;10961020;26;3229;-68
2024/04/12 05:50:25;;;;;;;;;;;;;;;10.52;100.00;97218.94;10960156;26;3244;-70
2024/04/12 05:55:30;;;;;;;;;;;;;;;10.94;100.00;97222.22;10958781;26;3483;-69
2024/04/12 06:00:35;;;;;;;;;;;;;;;10.95;100.00;97233.78;10962485;26;3142;-68
2024/04/12 06:05:39;;;;;;;;;;;;;;;11.17;100.00;97232.03;10948899;26;2959;-67
2024/04/12 06:10:44;;;;;;;;;;;;;;;11.35;100.00;97245.28;10952967;26;3119;-68
2024/04/12 06:15:49;;;;;;;;;;;;;;;11.52;100.00;97244.50;10953891;26;3002;-68
2024/04/12 06:20:55;;;;;;;;;;;;;;;11.50;100.00;97233.13;10975028;26;3118;-68
2024/04/12 06:26:00;;;;;;;;;;;;;;;11.97;100.00;97233.69;10948774;26;3154;-69
2024/04/12 06:31:06;;;;;;;;;;;;;;;12.25;100.00;97229.22;10947167;26;2995;-69
2024/04/12 06:36:11;;;;;;;;;;;;;;;12.58;100.00;97228.28;10953350;26;3151;-68
2024/04/12 06:41:16;;;;;;;;;;;;;;;12.76;100.00;97230.69;10948654;26;3168;-70
2024/04/12 06:46:20;;;;;;;;;;;;;;;13.47;100.00;97230.66;10953612;26;3004;-68
2024/04/12 06:51:25;;;;;;;;;;;;;;;13.85;100.00;97226.09;10955384;26;3190;-69
2024/04/12 06:56:33;;;;;;;;;;;;;;;13.85;100.00;97224.22;10930878;26;3170;-69
2024/04/12 07:01:39;;;;;;;;;;;;;;;13.83;100.00;97212.84;10935016;26;3000;-70
2024/04/12 07:06:44;;;;;;;;;;;;;;;14.21;100.00;97206.34;10957309;26;3141;-70
2024/04/12 07:11:51;;;;;;;;;;;;;;;14.40;100.00;97201.31;10956942;26;3054;-70
2024/04/12 07:16:56;;;;;;;;;;;;;;;14.39;100.00;97202.41;10951876;26;2955;-69
2024/04/12 07:22:00;;;;;;;;;;;;;;;14.45;100.00;97205.94;10959880;26;3242;-70
2024/04/12 07:27:09;;;;;;;;;;;;;;;15.23;100.00;97201.34;10948548;26;3237;-70
2024/04/12 07:32:15;;;;;;;;;;;;;;;15.55;100.00;97203.81;10954543;26;3047;-71
2024/04/12 07:37:27;;;;;;;;;;;;;;;15.69;100.00;97196.00;10949282;26;3034;-71
2024/04/12 07:42:36;;;;;;;;;;;;;;;15.42;100.00;97201.66;10953906;26;3064;-72
2024/04/12 07:47:52;;;;;;;;;;;;;;;15.23;100.00;97192.41;10953682;26;3043;-71
2024/04/12 07:52:56;;;;;;;;;;;;;;;15.52;100.00;97193.50;10949804;26;3024;-71
2024/04/12 07:58:01;;;;;;;;;;;;;;;15.56;100.00;97182.94;10954229;26;3237;-71
2024/04/12 08:03:06;;;;;;;;;;;;;;;15.82;100.00;97179.16;10951502;26;2916;-69
2024/04/12 08:08:15;;;;;;;;;;;;;;;15.65;100.00;97179.47;10952971;26;3225;-72
2024/04/12 08:13:23;;;;;;;;;;;;;;;16.12;100.00;97170.19;10954035;26;3123;-70
2024/04/12 08:18:28;;;;;;;;;;;;;;;16.23;100.00;97186.44;10952964;26;2915;-71
2024/04/12 08:23:32;;;;;;;;;;;;;;;16.53;100.00;97174.66;10949817;26;3114;-70
2024/04/12 08:28:36;;;;;;;;;;;;;;;16.92;100.00;97178.34;10954281;26;3110;-70
2024/04/12 08:33:45;;;;;;;;;;;;;;;16.87;100.00;97162.06;10953197;26;3110;-76
2024/04/12 08:39:12;;;;;;;;;;;;;;;17.20;100.00;97187.66;10954685;26;3047;-69
2024/04/12 08:44:19;;;;;;;;;;;;;;;17.56;100.00;97190.16;10950857;26;3107;-70
2024/04/12 08:49:23;;;;;;;;;;;;;;;17.36;100.00;97193.00;10951949;26;2990;-68
2024/04/12 08:54:28;;;;;;;;;;;;;;;17.71;100.00;97194.66;10949889;26;3024;-69
2024/04/12 08:59:33;;;;;;;;;;;;;;;17.94;100.00;97210.25;10943746;26;3391;-70
2024/04/12 09:04:39;;;;;;;;;;;;;;;17.42;100.00;97211.69;10956702;26;3401;-69
2024/04/12 09:09:45;;;;;;;;;;;;;;;17.06;100.00;97208.41;10944053;26;3027;-70
2024/04/12 09:14:49;;;;;;;;;;;;;;;18.02;100.00;97195.22;10945628;26;3212;-71
2024/04/12 09:19:53;;;;;;;;;;;;;;;17.72;100.00;97199.81;10946047;26;3147;-70
2024/04/12 09:25:14;;;;;;;;;;;;;;;17.39;100.00;97198.69;10950957;26;3126;-71
2024/04/12 09:35:38;;;;;;;;;;;;;;;17.65;100.00;97180.28;10938266;26;3212;-70
2024/04/12 09:40:52;;;;;;;;;;;;;;;17.94;100.00;97180.34;10943811;26;3130;-68
2024/04/12 09:46:05;;;;;;;;;;;;;;;17.79;100.00;97175.81;10943693;26;3115;-68
2024/04/12 10:39:17;;;;;;;;;;;;;;;18.44;100.00;97142.78;10951945;26;2979;-73
2024/04/12 10:44:21;;;;;;;;;;;;;;;18.10;100.00;97132.00;10953150;26;3269;-75
2024/04/12 10:49:30;;;;;;;;;;;;;;;18.18;100.00;97128.66;10954439;26;3360;-73
2024/04/12 10:54:34;;;;;;;;;;;;;;;18.33;98.63;97122.25;10954886;26;2490;-73
2024/04/12 10:59:42;;;;;;;;;;;;;;;17.72;100.00;97120.97;10967763;26;2917;-72
2024/04/12 11:10:06;;;;;;;;;;;;;;;17.73;100.00;97111.69;10934120;26;3213;-74
2024/04/12 11:31:07;;;;;;;;;;;;;;;17.83;100.00;97100.72;10958070;26;3161;-73
2024/04/12 11:31:20;;;;;;;;;;;;;;;18.25;100.00;97091.00;10951778;26;3139;-75
2024/04/12 11:36:25;;;;;;;;;;;;;;;18.12;98.47;97094.44;10930247;26;2939;-72
2024/04/12 11:41:30;;;;;;;;;;;;;;;18.07;100.00;97083.63;10956422;26;3213;-73
2024/04/12 11:46:34;;;;;;;;;;;;;;;18.05;100.00;97080.34;10945005;26;3230;-76
2024/04/12 11:51:38;;;;;;;;;;;;;;;18.34;98.88;97072.94;10954083;26;2975;-76
2024/04/12 11:56:44;;;;;;;;;;;;;;;18.75;98.70;97066.97;10975645;26;2903;-77
2024/04/12 12:01:49;;;;;;;;;;;;;;;18.83;92.49;97069.03;10950791;26;3024;-77
2024/04/12 12:06:54;;;;;;;;;;;;;;;19.00;91.12;97059.53;10944294;26;3229;-76
2024/04/12 12:11:58;;;;;;;;;;;;;;;19.02;87.39;97040.94;10971238;26;3167;-76
2024/04/12 12:17:05;;;;;;;;;;;;;;;19.10;87.95;97052.00;10949280;26;3143;-76
2024/04/12 12:22:11;;;;;;;;;;;;;;;19.48;84.37;97043.75;10943158;26;2703;-76
2024/04/12 12:27:16;;;;;;;;;;;;;;;19.67;85.79;97040.97;10947389;26;2577;-74
2024/04/12 12:32:25;;;;;;;;;;;;;;;19.55;84.45;97043.34;10946454;26;3142;-75
2024/04/12 12:37:30;;;;;;;;;;;;;;;19.36;89.79;97037.94;10946469;26;3015;-76
2024/04/12 12:42:37;;;;;;;;;;;;;;;19.77;84.77;97032.59;10955161;26;3005;-76
2024/04/12 12:47:41;;;;;;;;;;;;;;;19.61;89.20;97037.53;10949822;26;3118;-75
2024/04/12 12:52:49;;;;;;;;;;;;;;;19.82;88.29;97032.50;10944561;26;3099;-74
2024/04/12 12:58:09;;;;;;;;;;;;;;;19.33;90.06;97028.44;10942400;26;3135;-76
2024/04/12 13:03:17;;;;;;;;;;;;;;;19.69;88.09;97025.09;10948587;26;3250;-76
2024/04/12 13:08:25;;;;;;;;;;;;;;;20.09;89.19;97014.50;10945719;26;2999;-75
2024/04/12 13:13:33;;;;;;;;;;;;;;;20.15;85.01;97005.91;10946117;26;2980;-74
2024/04/12 13:18:43;;;;;;;;;;;;;;;20.15;85.19;96988.72;10932025;26;2963;-74
2024/04/12 13:23:50;;;;;;;;;;;;;;;20.35;83.40;96991.00;10930645;26;3165;-74
2024/04/12 13:28:55;;;;;;;;;;;;;;;20.14;85.36;96987.09;10949294;26;2967;-74
2024/04/12 13:34:00;;;;;;;;;;;;;;;20.44;85.11;96980.97;10949408;26;2571;-76
2024/04/12 13:39:12;;;;;;;;;;;;;;;20.70;85.26;96983.16;10946962;26;3140;-74
2024/04/12 13:44:25;;;;;;;;;;;;;;;21.31;78.47;96977.03;10947774;26;3106;-75
2024/04/12 13:54:51;;;;;;;;;;;;;;;20.79;84.97;96970.34;10971450;26;2866;-71
2024/04/12 13:59:55;;;;;;;;;;;;;;;20.88;80.24;96965.78;10951936;26;2943;-70
2024/04/12 14:04:59;;;;;;;;;;;;;;;20.71;80.70;96957.44;10949559;26;3150;-73
2024/04/12 14:10:06;;;;;;;;;;;;;;;20.75;82.83;96959.25;10949490;26;3008;-69
2024/04/12 14:15:11;;;;;;;;;;;;;;;20.24;87.19;96957.66;10952530;26;3166;-68
2024/04/12 14:20:16;;;;;;;;;;;;;;;20.71;85.13;96949.25;10948047;26;3337;-70
2024/04/12 14:25:20;;;;;;;;;;;;;;;21.18;81.76;96938.78;10951880;26;3298;-69
2024/04/12 14:30:24;;;;;;;;;;;;;;;21.19;79.75;96932.22;10948820;26;3162;-69
2024/04/12 14:35:29;;;;;;;;;;;;;;;20.46;82.88;96934.28;10961675;26;3044;-69
2024/04/12 14:40:34;;;;;;;;;;;;;;;20.04;85.83;96932.72;10953607;26;3123;-69
2024/04/12 14:45:39;;;;;;;;;;;;;;;20.19;87.81;96927.75;10953304;26;3099;-72
2024/04/12 14:50:47;;;;;;;;;;;;;;;20.17;86.57;96916.34;10949290;26;3140;-70
2024/04/12 14:55:52;;;;;;;;;;;;;;;20.14;87.47;96900.56;10955762;26;3193;-70
2024/04/12 15:00:58;;;;;;;;;;;;;;;20.19;88.13;96907.84;10955910;26;3118;-70
2024/04/12 15:48:49;;;;;;;;;;;;;;;19.83;94.46;96875.84;10968603;26;2975;-69
2024/04/12 15:53:58;;;;;;;;;;;;;;;19.54;100.00;96878.09;10961554;26;3229;-70
2024/04/12 16:15:05;;;;;;;;;;;;;;;19.01;100.00;96884.03;10952910;26;2983;-69
2024/04/12 16:20:09;;;;;;;;;;;;;;;18.87;100.00;96879.34;10932048;26;3143;-72
2024/04/12 16:25:14;;;;;;;;;;;;;;;18.87;100.00;96878.53;10974517;26;2988;-71
2024/04/12 16:30:18;;;;;;;;;;;;;;;18.79;100.00;96880.06;10975468;26;3028;-77
2024/04/12 16:35:23;;;;;;;;;;;;;;;18.94;100.00;96872.72;10951074;26;3079;-68
2024/04/12 16:40:28;;;;;;;;;;;;;;;18.90;100.00;96876.03;10956116;26;2975;-71
2024/04/12 16:45:32;;;;;;;;;;;;;;;18.66;100.00;96888.97;10953939;26;3154;-70
2024/04/12 16:50:36;;;;;;;;;;;;;;;18.64;100.00;96880.28;10957851;26;3129;-70
2024/04/12 16:55:40;;;;;;;;;;;;;;;18.52;100.00;96882.69;10933430;26;2996;-70
2024/04/12 17:00:45;;;;;;;;;;;;;;;18.55;100.00;96884.78;10962413;26;3047;-67
2024/04/12 17:05:50;;;;;;;;;;;;;;;18.47;100.00;96875.38;10964169;26;3126;-68
2024/04/12 17:10:55;;;;;;;;;;;;;;;18.18;100.00;96875.56;10961488;26;3115;-68
2024/04/12 17:16:01;;;;;;;;;;;;;;;18.01;100.00;96878.00;10957643;26;3017;-68
2024/04/12 17:21:05;;;;;;;;;;;;;;;17.72;100.00;96883.56;10949497;26;3130;-68
2024/04/12 17:26:10;;;;;;;;;;;;;;;17.59;100.00;96887.78;10952097;26;3095;-69
2024/04/12 17:31:14;;;;;;;;;;;;;;;17.37;100.00;96882.06;10953732;26;3138;-75
2024/04/12 17:36:18;;;;;;;;;;;;;;;17.23;100.00;96880.03;10956279;26;3112;-75
2024/04/12 17:41:24;;;;;;;;;;;;;;;17.00;100.00;96878.13;10954518;26;2852;-74
2024/04/12 17:46:29;;;;;;;;;;;;;;;16.83;100.00;96880.47;10956973;26;2849;-72
2024/04/12 17:51:35;;;;;;;;;;;;;;;16.62;100.00;96877.91;10961924;26;2848;-70
2024/04/12 17:56:40;;;;;;;;;;;;;;;16.47;100.00;96876.13;10949505;26;3239;-70
2024/04/12 18:01:45;;;;;;;;;;;;;;;16.20;100.00;96884.75;10953421;26;2939;-70
2024/04/12 18:06:49;;;;;;;;;;;;;;;16.08;100.00;96891.63;10954211;26;3154;-72
2024/04/12 18:11:54;;;;;;;;;;;;;;;15.92;100.00;96893.63;10931248;26;2985;-72
2024/04/12 18:16:58;;;;;;;;;;;;;;;15.84;100.00;96891.50;10951691;26;3020;-70
2024/04/12 18:22:02;;;;;;;;;;;;;;;15.58;100.00;96902.44;10928829;26;3062;-70
2024/04/12 18:27:06;;;;;;;;;;;;;;;15.36;100.00;96902.00;10940867;26;3266;-69
2024/04/12 18:32:11;;;;;;;;;;;;;;;15.21;100.00;96905.56;10946328;26;2920;-69
2024/04/12 18:45:06;;;;;;;;;;;;;;;15.03;100.00;96915.09;10926557;26;3177;-70
2024/04/12 18:48:01;;;;;;;;;;;;;;;14.59;100.00;96931.91;10949571;26;2989;-71
2024/04/12 18:53:06;;;;;;;;;;;;;;;14.44;100.00;96937.31;10962619;26;3020;-71
2024/04/12 18:58:10;;;;;;;;;;;;;;;14.42;100.00;96947.56;10931849;26;3124;-69
2024/04/12 19:03:14;;;;;;;;;;;;;;;14.34;100.00;96953.50;10952822;26;3228;-70
2024/04/12 19:08:20;;;;;;;;;;;;;;;14.23;100.00;96954.56;10951450;26;2964;-71
2024/04/12 19:13:24;;;;;;;;;;;;;;;14.13;100.00;96951.84;10942846;26;3135;-70
2024/04/12 19:18:29;;;;;;;;;;;;;;;14.10;100.00;96955.06;10944273;26;3110;-70
2024/04/12 19:23:34;;;;;;;;;;;;;;;14.01;100.00;96955.59;10957196;26;3075;-71
2024/04/12 19:28:39;;;;;;;;;;;;;;;13.91;100.00;96955.56;10954332;26;3230;-73
2024/04/12 19:33:44;;;;;;;;;;;;;;;13.82;100.00;96953.66;10958119;26;3000;-74
2024/04/12 19:38:48;;;;;;;;;;;;;;;13.74;100.00;96952.25;10959012;26;3157;-70
2024/04/12 19:43:53;;;;;;;;;;;;;;;13.73;100.00;96956.03;10951987;26;3192;-70
2024/04/12 19:49:00;;;;;;;;;;;;;;;13.68;100.00;96964.16;10959370;26;3111;-71
2024/04/12 19:54:05;;;;;;;;;;;;;;;13.63;100.00;96956.03;10957454;26;3222;-69
2024/04/12 19:59:09;;;;;;;;;;;;;;;13.58;100.00;96950.59;10950828;26;2991;-70
2024/04/12 20:04:13;;;;;;;;;;;;;;;13.45;100.00;96960.78;10956199;26;3000;-71
2024/04/12 20:09:18;;;;;;;;;;;;;;;13.31;100.00;96953.44;10952592;26;3071;-68
2024/04/12 20:14:23;;;;;;;;;;;;;;;13.22;100.00;96972.00;10956098;26;2924;-70
2024/04/12 20:19:28;;;;;;;;;;;;;;;13.07;100.00;96956.50;10957877;26;3213;-70
2024/04/12 20:24:32;;;;;;;;;;;;;;;12.94;100.00;96960.47;10955524;26;3237;-74
2024/04/12 20:29:36;;;;;;;;;;;;;;;12.89;100.00;96963.13;10952817;26;2996;-70
2024/04/12 20:35:07;;;;;;;;;;;;;;;12.80;100.00;96964.69;10957213;26;2924;-68
2024/04/12 20:40:10;;;;;;;;;;;;;;;12.72;100.00;96957.03;10963500;26;3277;-70
2024/04/12 20:45:14;;;;;;;;;;;;;;;12.65;100.00;96951.88;10959349;26;3124;-70
2024/04/12 20:50:19;;;;;;;;;;;;;;;12.55;100.00;96959.09;10956517;26;3224;-69
2024/04/12 20:55:24;;;;;;;;;;;;;;;12.54;100.00;96957.47;10965115;26;2984;-69
2024/04/12 21:00:28;;;;;;;;;;;;;;;12.49;100.00;96960.94;10949865;26;3214;-69
2024/04/12 21:05:32;;;;;;;;;;;;;;;12.48;100.00;96969.28;10948295;26;3095;-69
2024/04/12 21:10:38;;;;;;;;;;;;;;;12.35;100.00;96974.03;10945485;26;3237;-69
2024/04/12 21:15:42;;;;;;;;;;;;;;;12.26;100.00;96974.72;10945981;26;3159;-70
2024/04/12 21:20:48;;;;;;;;;;;;;;;12.22;100.00;96974.44;10942723;26;3147;-69
2024/04/12 21:25:53;;;;;;;;;;;;;;;12.16;100.00;96973.56;10940742;26;3206;-71
2024/04/12 21:31:02;;;;;;;;;;;;;;;12.17;100.00;96972.50;10942381;26;3138;-69
2024/04/12 21:36:06;;;;;;;;;;;;;;;12.06;100.00;96970.75;10952804;26;3037;-68
2024/04/12 21:41:26;;;;;;;;;;;;;;;12.06;100.00;96959.16;10950151;26;3236;-69
2024/04/12 21:46:32;;;;;;;;;;;;;;;12.15;100.00;96957.63;10946904;26;3085;-69
2024/04/12 21:51:36;;;;;;;;;;;;;;;12.12;100.00;96958.16;10952273;26;3012;-71
2024/04/12 21:56:40;;;;;;;;;;;;;;;12.10;100.00;96954.91;10941235;26;3114;-69
2024/04/12 22:01:44;;;;;;;;;;;;;;;12.07;100.00;96947.31;10949431;26;3126;-69
2024/04/12 22:06:49;;;;;;;;;;;;;;;11.89;100.00;96957.34;10949896;26;3094;-70
2024/04/12 22:11:56;;;;;;;;;;;;;;;11.75;100.00;96953.41;10943873;26;3139;-70
2024/04/12 22:17:00;;;;;;;;;;;;;;;11.62;100.00;96956.47;10947658;26;3123;-72
2024/04/12 22:22:04;;;;;;;;;;;;;;;11.51;100.00;96952.03;10944709;26;3264;-69
2024/04/12 22:27:09;;;;;;;;;;;;;;;11.47;100.00;96950.91;10952109;26;2936;-71
2024/04/12 22:32:14;;;;;;;;;;;;;;;11.49;100.00;96951.47;10958036;26;3025;-70
2024/04/12 22:37:18;;;;;;;;;;;;;;;11.40;100.00;96942.22;10984655;26;3244;-74
2024/04/12 22:42:22;;;;;;;;;;;;;;;11.28;100.00;96943.13;10965087;26;2881;-71
2024/04/12 22:47:27;;;;;;;;;;;;;;;11.24;100.00;96949.25;10966328;26;3121;-70
2024/04/12 22:52:32;;;;;;;;;;;;;;;11.17;100.00;96938.69;10957881;26;3438;-70
2024/04/12 22:57:37;;;;;;;;;;;;;;;11.08;100.00;96934.81;10951633;26;3230;-70
2024/04/12 23:02:42;;;;;;;;;;;;;;;11.04;100.00;96937.16;10954602;26;3102;-69
2024/04/12 23:07:46;;;;;;;;;;;;;;;11.00;100.00;96940.59;10952695;26;2951;-70
2024/04/12 23:12:51;;;;;;;;;;;;;;;10.92;100.00;96935.63;10957273;26;2873;-70
2024/04/12 23:17:55;;;;;;;;;;;;;;;10.83;100.00;96941.44;10954607;26;3240;-70
2024/04/12 23:23:02;;;;;;;;;;;;;;;10.79;100.00;96926.03;10957891;26;2964;-70
2024/04/12 23:28:12;;;;;;;;;;;;;;;10.72;100.00;96925.41;10952660;26;3351;-69
2024/04/12 23:33:16;;;;;;;;;;;;;;;10.71;100.00;96932.66;10951917;26;3759;-70
2024/04/12 23:38:22;;;;;;;;;;;;;;;10.69;100.00;96924.03;10952065;26;3059;-69
2024/04/12 23:43:26;;;;;;;;;;;;;;;10.66;100.00;96926.38;10953504;26;3130;-68
2024/04/12 23:48:30;;;;;;;;;;;;;;;10.63;100.00;96925.00;10960481;26;3135;-70
2024/04/12 23:53:35;;;;;;;;;;;;;;;10.63;100.00;96918.81;10956494;26;2876;-69
2024/04/12 23:58:39;;;;;;;;;;;;;;;10.70;100.00;96908.69;10958640;26;3015;-69
